sensor_id;sensor_type;location;lat;lon;timestamp;P1;durP1;ratioP1;P2;durP2;ratioP2
50225;SDS011;36113;50.742;6.432;2022-09-24T00:02:18;9.05;;;5.30;;
50225;SDS011;36113;50.742;6.432;2022-09-24T00:04:44;6.57;;;4.85;;
50225;SDS011;36113;50.742;6.432;2022-09-24T00:07:09;4.95;;;4.55;;
50225;SDS011;36113;50.742;6.432;2022-09-24T00:09:34;5.43;;;4.43;;
50225;SDS011;36113;50.742;6.432;2022-09-24T00:12:00;6.80;;;4.75;;
50225;SDS011;36113;50.742;6.432;2022-09-24T00:14:26;6.03;;;4.47;;
50225;SDS011;36113;50.742;6.432;2022-09-24T00:16:51;4.30;;;3.92;;
50225;SDS011;36113;50.742;6.432;2022-09-24T00:19:16;9.02;;;4.43;;
50225;SDS011;36113;50.742;6.432;2022-09-24T00:21:42;5.38;;;4.75;;
50225;SDS011;36113;50.742;6.432;2022-09-24T00:24:09;4.35;;;3.90;;
50225;SDS011;36113;50.742;6.432;2022-09-24T00:26:57;7.63;;;4.32;;
50225;SDS011;36113;50.742;6.432;2022-09-24T00:29:26;5.65;;;4.43;;
50225;SDS011;36113;50.742;6.432;2022-09-24T00:31:52;4.40;;;4.00;;
50225;SDS011;36113;50.742;6.432;2022-09-24T00:34:18;4.43;;;4.05;;
50225;SDS011;36113;50.742;6.432;2022-09-24T00:36:44;6.37;;;4.17;;
50225;SDS011;36113;50.742;6.432;2022-09-24T00:39:12;5.35;;;4.40;;
50225;SDS011;36113;50.742;6.432;2022-09-24T00:41:39;4.47;;;4.05;;
50225;SDS011;36113;50.742;6.432;2022-09-24T00:46:59;4.97;;;4.32;;
50225;SDS011;36113;50.742;6.432;2022-09-24T00:49:24;6.32;;;4.45;;
50225;SDS011;36113;50.742;6.432;2022-09-24T00:51:50;4.53;;;4.13;;
50225;SDS011;36113;50.742;6.432;2022-09-24T00:54:25;4.32;;;4.00;;
50225;SDS011;36113;50.742;6.432;2022-09-24T00:56:53;5.40;;;4.78;;
50225;SDS011;36113;50.742;6.432;2022-09-24T00:59:21;5.85;;;4.57;;
50225;SDS011;36113;50.742;6.432;2022-09-24T01:01:49;7.03;;;5.15;;
50225;SDS011;36113;50.742;6.432;2022-09-24T01:04:21;6.80;;;4.63;;
50225;SDS011;36113;50.742;6.432;2022-09-24T01:06:48;8.02;;;5.50;;
50225;SDS011;36113;50.742;6.432;2022-09-24T01:09:14;5.67;;;4.67;;
50225;SDS011;36113;50.742;6.432;2022-09-24T01:16:45;7.55;;;5.13;;
50225;SDS011;36113;50.742;6.432;2022-09-24T01:22:25;7.10;;;5.43;;
50225;SDS011;36113;50.742;6.432;2022-09-24T01:25:00;5.20;;;4.80;;
50225;SDS011;36113;50.742;6.432;2022-09-24T01:27:41;6.40;;;5.18;;
50225;SDS011;36113;50.742;6.432;2022-09-24T01:30:08;7.05;;;4.65;;
50225;SDS011;36113;50.742;6.432;2022-09-24T01:32:55;8.23;;;5.35;;
50225;SDS011;36113;50.742;6.432;2022-09-24T01:35:37;6.60;;;5.00;;
50225;SDS011;36113;50.742;6.432;2022-09-24T01:38:20;7.03;;;5.47;;
50225;SDS011;36113;50.742;6.432;2022-09-24T01:40:49;10.20;;;5.28;;
50225;SDS011;36113;50.742;6.432;2022-09-24T01:43:19;8.07;;;4.28;;
50225;SDS011;36113;50.742;6.432;2022-09-24T01:45:46;9.18;;;5.32;;
50225;SDS011;36113;50.742;6.432;2022-09-24T01:48:12;6.70;;;5.97;;
50225;SDS011;36113;50.742;6.432;2022-09-24T01:50:43;5.63;;;4.85;;
50225;SDS011;36113;50.742;6.432;2022-09-24T01:53:19;8.93;;;5.22;;
50225;SDS011;36113;50.742;6.432;2022-09-24T01:55:49;6.45;;;5.80;;
50225;SDS011;36113;50.742;6.432;2022-09-24T01:58:29;6.50;;;5.20;;
50225;SDS011;36113;50.742;6.432;2022-09-24T02:01:04;5.82;;;5.32;;
50225;SDS011;36113;50.742;6.432;2022-09-24T02:03:35;9.40;;;5.82;;
50225;SDS011;36113;50.742;6.432;2022-09-24T02:06:49;10.05;;;5.70;;
50225;SDS011;36113;50.742;6.432;2022-09-24T02:08:59;7.95;;;5.78;;
50225;SDS011;36113;50.742;6.432;2022-09-24T02:11:24;6.82;;;5.22;;
50225;SDS011;36113;50.742;6.432;2022-09-24T02:13:53;7.57;;;5.80;;
50225;SDS011;36113;50.742;6.432;2022-09-24T02:16:29;7.57;;;5.40;;
50225;SDS011;36113;50.742;6.432;2022-09-24T02:19:00;7.80;;;5.28;;
50225;SDS011;36113;50.742;6.432;2022-09-24T02:21:29;8.80;;;5.70;;
50225;SDS011;36113;50.742;6.432;2022-09-24T02:24:04;6.80;;;5.72;;
50225;SDS011;36113;50.742;6.432;2022-09-24T02:26:35;7.10;;;5.22;;
50225;SDS011;36113;50.742;6.432;2022-09-24T02:29:01;6.70;;;5.03;;
50225;SDS011;36113;50.742;6.432;2022-09-24T02:31:29;5.88;;;5.30;;
50225;SDS011;36113;50.742;6.432;2022-09-24T02:33:59;5.43;;;4.93;;
50225;SDS011;36113;50.742;6.432;2022-09-24T02:36:51;6.13;;;4.93;;
50225;SDS011;36113;50.742;6.432;2022-09-24T02:39:23;6.35;;;4.70;;
50225;SDS011;36113;50.742;6.432;2022-09-24T02:41:49;5.45;;;4.75;;
50225;SDS011;36113;50.742;6.432;2022-09-24T02:44:16;10.57;;;5.53;;
50225;SDS011;36113;50.742;6.432;2022-09-24T02:46:43;7.53;;;5.18;;
50225;SDS011;36113;50.742;6.432;2022-09-24T02:49:09;9.70;;;5.28;;
50225;SDS011;36113;50.742;6.432;2022-09-24T02:51:35;8.13;;;5.35;;
50225;SDS011;36113;50.742;6.432;2022-09-24T02:54:00;5.68;;;4.32;;
50225;SDS011;36113;50.742;6.432;2022-09-24T02:56:27;5.18;;;4.53;;
50225;SDS011;36113;50.742;6.432;2022-09-24T02:58:53;6.97;;;5.20;;
50225;SDS011;36113;50.742;6.432;2022-09-24T03:01:19;8.93;;;4.60;;
50225;SDS011;36113;50.742;6.432;2022-09-24T03:03:45;6.57;;;5.55;;
50225;SDS011;36113;50.742;6.432;2022-09-24T03:06:11;8.80;;;5.47;;
50225;SDS011;36113;50.742;6.432;2022-09-24T03:08:37;5.55;;;4.38;;
50225;SDS011;36113;50.742;6.432;2022-09-24T03:11:03;5.13;;;4.57;;
50225;SDS011;36113;50.742;6.432;2022-09-24T03:13:28;6.82;;;4.65;;
50225;SDS011;36113;50.742;6.432;2022-09-24T03:15:53;5.15;;;4.60;;
50225;SDS011;36113;50.742;6.432;2022-09-24T03:18:19;8.80;;;4.38;;
50225;SDS011;36113;50.742;6.432;2022-09-24T03:20:52;5.00;;;4.60;;
50225;SDS011;36113;50.742;6.432;2022-09-24T03:23:28;6.15;;;4.72;;
50225;SDS011;36113;50.742;6.432;2022-09-24T03:25:54;5.05;;;4.55;;
50225;SDS011;36113;50.742;6.432;2022-09-24T03:28:21;8.80;;;4.80;;
50225;SDS011;36113;50.742;6.432;2022-09-24T03:30:46;5.97;;;4.55;;
50225;SDS011;36113;50.742;6.432;2022-09-24T03:33:23;7.80;;;5.07;;
50225;SDS011;36113;50.742;6.432;2022-09-24T03:35:53;9.03;;;5.00;;
50225;SDS011;36113;50.742;6.432;2022-09-24T03:38:19;6.35;;;5.13;;
50225;SDS011;36113;50.742;6.432;2022-09-24T03:40:44;7.28;;;5.40;;
50225;SDS011;36113;50.742;6.432;2022-09-24T03:43:10;5.85;;;5.25;;
50225;SDS011;36113;50.742;6.432;2022-09-24T03:45:35;9.70;;;5.82;;
50225;SDS011;36113;50.742;6.432;2022-09-24T03:48:01;7.10;;;4.80;;
50225;SDS011;36113;50.742;6.432;2022-09-24T03:50:27;7.35;;;4.80;;
50225;SDS011;36113;50.742;6.432;2022-09-24T03:52:52;9.63;;;4.80;;
50225;SDS011;36113;50.742;6.432;2022-09-24T03:55:17;6.78;;;4.95;;
50225;SDS011;36113;50.742;6.432;2022-09-24T03:57:43;5.97;;;4.93;;
50225;SDS011;36113;50.742;6.432;2022-09-24T04:00:08;10.35;;;4.47;;
50225;SDS011;36113;50.742;6.432;2022-09-24T04:02:34;6.00;;;4.72;;
50225;SDS011;36113;50.742;6.432;2022-09-24T04:05:00;4.88;;;4.35;;
50225;SDS011;36113;50.742;6.432;2022-09-24T04:07:25;7.13;;;5.05;;
50225;SDS011;36113;50.742;6.432;2022-09-24T04:09:51;5.75;;;4.80;;
50225;SDS011;36113;50.742;6.432;2022-09-24T04:12:16;6.20;;;4.80;;
50225;SDS011;36113;50.742;6.432;2022-09-24T04:14:42;5.68;;;4.47;;
50225;SDS011;36113;50.742;6.432;2022-09-24T04:17:08;7.57;;;5.32;;
50225;SDS011;36113;50.742;6.432;2022-09-24T04:19:34;9.95;;;4.78;;
50225;SDS011;36113;50.742;6.432;2022-09-24T04:21:59;6.13;;;4.65;;
50225;SDS011;36113;50.742;6.432;2022-09-24T04:24:24;7.03;;;5.00;;
50225;SDS011;36113;50.742;6.432;2022-09-24T04:26:49;8.98;;;5.47;;
50225;SDS011;36113;50.742;6.432;2022-09-24T04:29:15;7.63;;;5.18;;
50225;SDS011;36113;50.742;6.432;2022-09-24T04:31:40;7.07;;;5.95;;
50225;SDS011;36113;50.742;6.432;2022-09-24T04:34:06;7.25;;;5.65;;
50225;SDS011;36113;50.742;6.432;2022-09-24T04:36:32;11.70;;;6.03;;
50225;SDS011;36113;50.742;6.432;2022-09-24T04:38:57;6.55;;;5.82;;
50225;SDS011;36113;50.742;6.432;2022-09-24T04:41:23;5.60;;;5.07;;
50225;SDS011;36113;50.742;6.432;2022-09-24T04:43:48;10.40;;;5.75;;
50225;SDS011;36113;50.742;6.432;2022-09-24T04:46:15;6.90;;;6.00;;
50225;SDS011;36113;50.742;6.432;2022-09-24T04:48:42;5.85;;;5.25;;
50225;SDS011;36113;50.742;6.432;2022-09-24T04:51:07;6.85;;;5.75;;
50225;SDS011;36113;50.742;6.432;2022-09-24T04:53:34;6.03;;;5.13;;
50225;SDS011;36113;50.742;6.432;2022-09-24T04:56:01;6.00;;;5.10;;
50225;SDS011;36113;50.742;6.432;2022-09-24T04:58:27;5.20;;;4.70;;
50225;SDS011;36113;50.742;6.432;2022-09-24T05:00:53;5.72;;;4.88;;
50225;SDS011;36113;50.742;6.432;2022-09-24T05:03:18;6.32;;;4.97;;
50225;SDS011;36113;50.742;6.432;2022-09-24T05:05:45;6.65;;;4.88;;
50225;SDS011;36113;50.742;6.432;2022-09-24T05:08:11;12.70;;;5.93;;
50225;SDS011;36113;50.742;6.432;2022-09-24T05:10:37;7.15;;;5.75;;
50225;SDS011;36113;50.742;6.432;2022-09-24T05:13:02;6.82;;;6.18;;
50225;SDS011;36113;50.742;6.432;2022-09-24T05:15:28;7.30;;;5.38;;
50225;SDS011;36113;50.742;6.432;2022-09-24T05:17:53;11.85;;;5.75;;
50225;SDS011;36113;50.742;6.432;2022-09-24T05:20:18;7.75;;;5.80;;
50225;SDS011;36113;50.742;6.432;2022-09-24T05:22:44;8.82;;;6.30;;
50225;SDS011;36113;50.742;6.432;2022-09-24T05:25:12;9.15;;;7.60;;
50225;SDS011;36113;50.742;6.432;2022-09-24T05:27:59;10.48;;;6.90;;
50225;SDS011;36113;50.742;6.432;2022-09-24T05:30:24;8.32;;;6.30;;
50225;SDS011;36113;50.742;6.432;2022-09-24T05:32:50;8.32;;;7.05;;
50225;SDS011;36113;50.742;6.432;2022-09-24T05:35:22;8.93;;;6.90;;
50225;SDS011;36113;50.742;6.432;2022-09-24T05:37:48;9.45;;;6.53;;
50225;SDS011;36113;50.742;6.432;2022-09-24T05:40:13;14.88;;;6.88;;
50225;SDS011;36113;50.742;6.432;2022-09-24T05:43:00;7.95;;;6.57;;
50225;SDS011;36113;50.742;6.432;2022-09-24T05:45:26;9.57;;;6.78;;
50225;SDS011;36113;50.742;6.432;2022-09-24T05:47:51;11.23;;;7.53;;
50225;SDS011;36113;50.742;6.432;2022-09-24T05:50:17;12.30;;;7.43;;
50225;SDS011;36113;50.742;6.432;2022-09-24T05:52:42;11.65;;;6.88;;
50225;SDS011;36113;50.742;6.432;2022-09-24T05:55:10;8.38;;;6.93;;
50225;SDS011;36113;50.742;6.432;2022-09-24T05:57:36;8.20;;;6.70;;
50225;SDS011;36113;50.742;6.432;2022-09-24T06:00:02;12.93;;;7.80;;
50225;SDS011;36113;50.742;6.432;2022-09-24T06:02:29;10.77;;;7.82;;
50225;SDS011;36113;50.742;6.432;2022-09-24T06:04:54;13.13;;;8.55;;
50225;SDS011;36113;50.742;6.432;2022-09-24T06:07:19;9.02;;;7.38;;
50225;SDS011;36113;50.742;6.432;2022-09-24T06:09:45;8.60;;;7.72;;
50225;SDS011;36113;50.742;6.432;2022-09-24T06:12:11;10.50;;;7.67;;
50225;SDS011;36113;50.742;6.432;2022-09-24T06:14:38;9.43;;;7.18;;
50225;SDS011;36113;50.742;6.432;2022-09-24T06:17:04;10.95;;;7.82;;
50225;SDS011;36113;50.742;6.432;2022-09-24T06:19:29;12.10;;;7.32;;
50225;SDS011;36113;50.742;6.432;2022-09-24T06:21:55;13.52;;;7.57;;
50225;SDS011;36113;50.742;6.432;2022-09-24T06:24:21;13.80;;;8.05;;
50225;SDS011;36113;50.742;6.432;2022-09-24T06:26:47;11.38;;;7.70;;
50225;SDS011;36113;50.742;6.432;2022-09-24T06:29:12;12.48;;;7.57;;
50225;SDS011;36113;50.742;6.432;2022-09-24T06:31:39;9.23;;;6.90;;
50225;SDS011;36113;50.742;6.432;2022-09-24T06:34:04;9.23;;;7.60;;
50225;SDS011;36113;50.742;6.432;2022-09-24T06:36:29;11.50;;;8.15;;
50225;SDS011;36113;50.742;6.432;2022-09-24T06:38:55;10.30;;;7.75;;
50225;SDS011;36113;50.742;6.432;2022-09-24T06:41:22;10.57;;;8.25;;
50225;SDS011;36113;50.742;6.432;2022-09-24T06:43:48;10.73;;;8.45;;
50225;SDS011;36113;50.742;6.432;2022-09-24T06:46:13;10.38;;;7.32;;
50225;SDS011;36113;50.742;6.432;2022-09-24T06:48:39;9.60;;;7.00;;
50225;SDS011;36113;50.742;6.432;2022-09-24T06:51:05;8.30;;;7.50;;
50225;SDS011;36113;50.742;6.432;2022-09-24T06:53:31;12.77;;;7.43;;
50225;SDS011;36113;50.742;6.432;2022-09-24T06:55:57;11.70;;;8.02;;
50225;SDS011;36113;50.742;6.432;2022-09-24T06:58:27;9.00;;;8.05;;
50225;SDS011;36113;50.742;6.432;2022-09-24T07:00:54;11.83;;;7.87;;
50225;SDS011;36113;50.742;6.432;2022-09-24T07:03:26;10.35;;;7.68;;
50225;SDS011;36113;50.742;6.432;2022-09-24T07:05:52;13.77;;;7.97;;
50225;SDS011;36113;50.742;6.432;2022-09-24T07:08:18;8.88;;;7.18;;
50225;SDS011;36113;50.742;6.432;2022-09-24T07:10:44;16.42;;;8.30;;
50225;SDS011;36113;50.742;6.432;2022-09-24T07:13:12;13.13;;;8.57;;
50225;SDS011;36113;50.742;6.432;2022-09-24T07:15:38;10.65;;;8.77;;
50225;SDS011;36113;50.742;6.432;2022-09-24T07:18:04;23.17;;;9.10;;
50225;SDS011;36113;50.742;6.432;2022-09-24T07:20:29;9.02;;;8.15;;
50225;SDS011;36113;50.742;6.432;2022-09-24T07:22:55;11.48;;;8.00;;
50225;SDS011;36113;50.742;6.432;2022-09-24T07:25:20;13.50;;;8.15;;
50225;SDS011;36113;50.742;6.432;2022-09-24T07:27:46;11.77;;;8.48;;
50225;SDS011;36113;50.742;6.432;2022-09-24T07:30:11;15.30;;;9.65;;
50225;SDS011;36113;50.742;6.432;2022-09-24T07:32:37;10.45;;;8.00;;
50225;SDS011;36113;50.742;6.432;2022-09-24T07:35:02;9.18;;;7.13;;
50225;SDS011;36113;50.742;6.432;2022-09-24T07:37:28;13.02;;;7.85;;
50225;SDS011;36113;50.742;6.432;2022-09-24T07:39:56;11.73;;;8.35;;
50225;SDS011;36113;50.742;6.432;2022-09-24T07:42:22;16.52;;;8.75;;
50225;SDS011;36113;50.742;6.432;2022-09-24T07:44:49;11.63;;;8.68;;
50225;SDS011;36113;50.742;6.432;2022-09-24T07:47:14;15.80;;;11.65;;
50225;SDS011;36113;50.742;6.432;2022-09-24T07:49:40;16.20;;;10.50;;
50225;SDS011;36113;50.742;6.432;2022-09-24T07:52:06;16.75;;;12.65;;
50225;SDS011;36113;50.742;6.432;2022-09-24T07:54:31;19.95;;;12.77;;
50225;SDS011;36113;50.742;6.432;2022-09-24T07:56:57;17.33;;;12.55;;
50225;SDS011;36113;50.742;6.432;2022-09-24T07:59:22;15.43;;;11.18;;
50225;SDS011;36113;50.742;6.432;2022-09-24T08:01:48;14.27;;;9.05;;
50225;SDS011;36113;50.742;6.432;2022-09-24T08:04:17;10.52;;;7.97;;
50225;SDS011;36113;50.742;6.432;2022-09-24T08:06:43;16.00;;;10.13;;
50225;SDS011;36113;50.742;6.432;2022-09-24T08:09:08;15.57;;;9.13;;
50225;SDS011;36113;50.742;6.432;2022-09-24T08:11:33;15.18;;;10.18;;
50225;SDS011;36113;50.742;6.432;2022-09-24T08:13:59;16.92;;;10.30;;
50225;SDS011;36113;50.742;6.432;2022-09-24T08:16:24;17.25;;;10.57;;
50225;SDS011;36113;50.742;6.432;2022-09-24T08:18:51;14.05;;;10.15;;
50225;SDS011;36113;50.742;6.432;2022-09-24T08:21:16;17.50;;;11.47;;
50225;SDS011;36113;50.742;6.432;2022-09-24T08:23:42;17.27;;;12.75;;
50225;SDS011;36113;50.742;6.432;2022-09-24T08:26:11;21.63;;;12.85;;
50225;SDS011;36113;50.742;6.432;2022-09-24T08:28:37;25.55;;;14.43;;
50225;SDS011;36113;50.742;6.432;2022-09-24T08:31:06;19.15;;;13.18;;
50225;SDS011;36113;50.742;6.432;2022-09-24T08:33:33;21.00;;;13.10;;
50225;SDS011;36113;50.742;6.432;2022-09-24T08:36:00;16.63;;;12.25;;
50225;SDS011;36113;50.742;6.432;2022-09-24T08:38:27;19.48;;;11.40;;
50225;SDS011;36113;50.742;6.432;2022-09-24T08:43:33;17.25;;;11.50;;
50225;SDS011;36113;50.742;6.432;2022-09-24T08:46:18;17.40;;;10.40;;
50225;SDS011;36113;50.742;6.432;2022-09-24T08:49:09;15.30;;;11.30;;
50225;SDS011;36113;50.742;6.432;2022-09-24T08:51:42;17.85;;;10.60;;
50225;SDS011;36113;50.742;6.432;2022-09-24T08:54:18;14.57;;;10.77;;
50225;SDS011;36113;50.742;6.432;2022-09-24T08:56:44;13.50;;;9.50;;
50225;SDS011;36113;50.742;6.432;2022-09-24T08:59:17;15.75;;;11.00;;
50225;SDS011;36113;50.742;6.432;2022-09-24T09:02:02;15.93;;;9.38;;
50225;SDS011;36113;50.742;6.432;2022-09-24T09:07:23;9.20;;;7.97;;
50225;SDS011;36113;50.742;6.432;2022-09-24T09:10:02;11.30;;;8.88;;
50225;SDS011;36113;50.742;6.432;2022-09-24T09:12:36;11.20;;;8.33;;
50225;SDS011;36113;50.742;6.432;2022-09-24T09:15:13;10.77;;;9.00;;
50225;SDS011;36113;50.742;6.432;2022-09-24T09:22:54;9.15;;;6.90;;
50225;SDS011;36113;50.742;6.432;2022-09-24T09:25:24;8.32;;;6.75;;
50225;SDS011;36113;50.742;6.432;2022-09-24T09:30:41;12.57;;;9.10;;
50225;SDS011;36113;50.742;6.432;2022-09-24T09:41:33;17.33;;;11.90;;
50225;SDS011;36113;50.742;6.432;2022-09-24T09:44:10;17.88;;;11.15;;
50225;SDS011;36113;50.742;6.432;2022-09-24T09:46:41;23.52;;;12.35;;
50225;SDS011;36113;50.742;6.432;2022-09-24T09:49:24;16.55;;;11.13;;
50225;SDS011;36113;50.742;6.432;2022-09-24T09:51:56;16.05;;;12.00;;
50225;SDS011;36113;50.742;6.432;2022-09-24T09:54:34;19.43;;;11.70;;
50225;SDS011;36113;50.742;6.432;2022-09-24T09:57:00;18.42;;;12.75;;
50225;SDS011;36113;50.742;6.432;2022-09-24T09:59:27;15.52;;;11.63;;
50225;SDS011;36113;50.742;6.432;2022-09-24T10:01:55;20.35;;;13.38;;
50225;SDS011;36113;50.742;6.432;2022-09-24T10:09:27;18.17;;;12.10;;
50225;SDS011;36113;50.742;6.432;2022-09-24T10:11:53;20.65;;;12.20;;
50225;SDS011;36113;50.742;6.432;2022-09-24T10:14:18;16.50;;;12.83;;
50225;SDS011;36113;50.742;6.432;2022-09-24T10:16:46;21.25;;;13.27;;
50225;SDS011;36113;50.742;6.432;2022-09-24T10:19:24;17.15;;;12.90;;
50225;SDS011;36113;50.742;6.432;2022-09-24T10:21:51;19.65;;;12.95;;
50225;SDS011;36113;50.742;6.432;2022-09-24T10:24:22;16.08;;;12.30;;
50225;SDS011;36113;50.742;6.432;2022-09-24T10:26:49;15.80;;;11.48;;
50225;SDS011;36113;50.742;6.432;2022-09-24T10:29:17;16.50;;;12.00;;
50225;SDS011;36113;50.742;6.432;2022-09-24T10:32:04;16.85;;;13.13;;
50225;SDS011;36113;50.742;6.432;2022-09-24T10:34:37;16.90;;;12.27;;
50225;SDS011;36113;50.742;6.432;2022-09-24T10:37:10;15.02;;;11.75;;
50225;SDS011;36113;50.742;6.432;2022-09-24T10:39:38;16.45;;;11.50;;
50225;SDS011;36113;50.742;6.432;2022-09-24T10:42:04;15.40;;;11.65;;
50225;SDS011;36113;50.742;6.432;2022-09-24T10:44:34;16.27;;;11.77;;
50225;SDS011;36113;50.742;6.432;2022-09-24T10:49:54;16.00;;;12.32;;
50225;SDS011;36113;50.742;6.432;2022-09-24T11:00:14;17.73;;;11.87;;
50225;SDS011;36113;50.742;6.432;2022-09-24T11:05:53;15.35;;;12.30;;
50225;SDS011;36113;50.742;6.432;2022-09-24T11:22:30;16.73;;;11.27;;
50225;SDS011;36113;50.742;6.432;2022-09-24T11:25:23;16.42;;;11.20;;
50225;SDS011;36113;50.742;6.432;2022-09-24T11:45:26;15.57;;;10.13;;
50225;SDS011;36113;50.742;6.432;2022-09-24T11:54:07;11.55;;;8.30;;
50225;SDS011;36113;50.742;6.432;2022-09-24T11:56:46;13.00;;;8.40;;
50225;SDS011;36113;50.742;6.432;2022-09-24T11:59:19;11.02;;;8.73;;
50225;SDS011;36113;50.742;6.432;2022-09-24T12:01:56;10.77;;;8.07;;
50225;SDS011;36113;50.742;6.432;2022-09-24T12:04:29;10.45;;;7.63;;
50225;SDS011;36113;50.742;6.432;2022-09-24T12:07:23;10.23;;;8.13;;
50225;SDS011;36113;50.742;6.432;2022-09-24T12:09:59;10.30;;;8.02;;
50225;SDS011;36113;50.742;6.432;2022-09-24T12:12:38;14.43;;;9.05;;
50225;SDS011;36113;50.742;6.432;2022-09-24T12:18:00;10.25;;;8.82;;
50225;SDS011;36113;50.742;6.432;2022-09-24T12:20:31;14.02;;;10.63;;
50225;SDS011;36113;50.742;6.432;2022-09-24T12:23:11;12.43;;;10.60;;
50225;SDS011;36113;50.742;6.432;2022-09-24T12:25:39;15.57;;;11.00;;
50225;SDS011;36113;50.742;6.432;2022-09-24T12:28:16;13.27;;;10.40;;
50225;SDS011;36113;50.742;6.432;2022-09-24T12:31:24;14.40;;;10.50;;
50225;SDS011;36113;50.742;6.432;2022-09-24T12:37:12;12.45;;;9.68;;
50225;SDS011;36113;50.742;6.432;2022-09-24T12:39:51;10.43;;;9.13;;
50225;SDS011;36113;50.742;6.432;2022-09-24T12:42:26;11.27;;;8.27;;
50225;SDS011;36113;50.742;6.432;2022-09-24T12:44:58;9.30;;;7.85;;
50225;SDS011;36113;50.742;6.432;2022-09-24T12:47:26;8.68;;;7.70;;
50225;SDS011;36113;50.742;6.432;2022-09-24T12:49:56;8.57;;;7.20;;
50225;SDS011;36113;50.742;6.432;2022-09-24T12:52:26;7.35;;;6.60;;
50225;SDS011;36113;50.742;6.432;2022-09-24T12:55:03;10.00;;;8.35;;
50225;SDS011;36113;50.742;6.432;2022-09-24T12:57:32;9.48;;;8.07;;
50225;SDS011;36113;50.742;6.432;2022-09-24T13:00:01;10.20;;;7.78;;
50225;SDS011;36113;50.742;6.432;2022-09-24T13:02:47;8.45;;;7.35;;
50225;SDS011;36113;50.742;6.432;2022-09-24T13:05:16;10.20;;;8.27;;
50225;SDS011;36113;50.742;6.432;2022-09-24T13:08:02;9.68;;;8.23;;
50225;SDS011;36113;50.742;6.432;2022-09-24T13:10:32;12.30;;;9.18;;
50225;SDS011;36113;50.742;6.432;2022-09-24T13:13:00;11.02;;;8.80;;
50225;SDS011;36113;50.742;6.432;2022-09-24T13:15:34;10.82;;;8.02;;
50225;SDS011;36113;50.742;6.432;2022-09-24T13:18:03;12.50;;;8.90;;
50225;SDS011;36113;50.742;6.432;2022-09-24T13:20:30;10.57;;;9.10;;
50225;SDS011;36113;50.742;6.432;2022-09-24T13:22:58;12.90;;;9.63;;
50225;SDS011;36113;50.742;6.432;2022-09-24T13:25:36;12.38;;;9.63;;
50225;SDS011;36113;50.742;6.432;2022-09-24T13:28:03;16.83;;;10.13;;
50225;SDS011;36113;50.742;6.432;2022-09-24T13:30:45;16.48;;;10.45;;
50225;SDS011;36113;50.742;6.432;2022-09-24T13:33:27;11.93;;;9.40;;
50225;SDS011;36113;50.742;6.432;2022-09-24T13:36:12;18.83;;;11.35;;
50225;SDS011;36113;50.742;6.432;2022-09-24T13:38:47;16.42;;;12.32;;
50225;SDS011;36113;50.742;6.432;2022-09-24T13:43:47;15.30;;;10.77;;
50225;SDS011;36113;50.742;6.432;2022-09-24T13:46:17;12.52;;;10.75;;
50225;SDS011;36113;50.742;6.432;2022-09-24T13:51:13;15.20;;;11.02;;
50225;SDS011;36113;50.742;6.432;2022-09-24T13:53:48;14.07;;;11.63;;
50225;SDS011;36113;50.742;6.432;2022-09-24T13:56:19;17.80;;;13.38;;
50225;SDS011;36113;50.742;6.432;2022-09-24T13:58:45;18.38;;;12.65;;
50225;SDS011;36113;50.742;6.432;2022-09-24T14:01:25;17.15;;;12.63;;
50225;SDS011;36113;50.742;6.432;2022-09-24T14:04:00;17.02;;;12.85;;
50225;SDS011;36113;50.742;6.432;2022-09-24T14:09:01;23.80;;;16.02;;
50225;SDS011;36113;50.742;6.432;2022-09-24T14:11:27;18.07;;;12.73;;
50225;SDS011;36113;50.742;6.432;2022-09-24T14:13:52;19.20;;;14.43;;
50225;SDS011;36113;50.742;6.432;2022-09-24T14:16:20;19.50;;;14.48;;
50225;SDS011;36113;50.742;6.432;2022-09-24T14:18:47;20.67;;;15.02;;
50225;SDS011;36113;50.742;6.432;2022-09-24T14:21:20;23.57;;;15.67;;
50225;SDS011;36113;50.742;6.432;2022-09-24T14:23:53;19.93;;;13.50;;
50225;SDS011;36113;50.742;6.432;2022-09-24T14:26:42;17.08;;;14.20;;
50225;SDS011;36113;50.742;6.432;2022-09-24T14:29:15;24.80;;;15.40;;
50225;SDS011;36113;50.742;6.432;2022-09-24T14:31:45;20.15;;;14.55;;
50225;SDS011;36113;50.742;6.432;2022-09-24T14:37:28;23.20;;;16.15;;
50225;SDS011;36113;50.742;6.432;2022-09-24T14:39:58;18.75;;;15.15;;
50225;SDS011;36113;50.742;6.432;2022-09-24T14:42:38;24.25;;;15.98;;
50225;SDS011;36113;50.742;6.432;2022-09-24T14:45:08;17.50;;;15.02;;
50225;SDS011;36113;50.742;6.432;2022-09-24T14:50:01;23.33;;;15.00;;
50225;SDS011;36113;50.742;6.432;2022-09-24T14:55:15;21.58;;;11.80;;
50225;SDS011;36113;50.742;6.432;2022-09-24T14:57:43;15.38;;;11.88;;
50225;SDS011;36113;50.742;6.432;2022-09-24T15:03:11;15.38;;;10.68;;
50225;SDS011;36113;50.742;6.432;2022-09-24T15:05:38;15.60;;;11.15;;
50225;SDS011;36113;50.742;6.432;2022-09-24T15:08:08;14.60;;;10.90;;
50225;SDS011;36113;50.742;6.432;2022-09-24T15:10:36;18.23;;;11.15;;
50225;SDS011;36113;50.742;6.432;2022-09-24T15:13:13;20.17;;;11.15;;
50225;SDS011;36113;50.742;6.432;2022-09-24T15:15:40;16.27;;;11.43;;
50225;SDS011;36113;50.742;6.432;2022-09-24T15:18:09;17.48;;;11.05;;
50225;SDS011;36113;50.742;6.432;2022-09-24T15:20:35;15.82;;;11.75;;
50225;SDS011;36113;50.742;6.432;2022-09-24T15:23:00;19.02;;;10.93;;
50225;SDS011;36113;50.742;6.432;2022-09-24T15:25:26;13.70;;;11.93;;
50225;SDS011;36113;50.742;6.432;2022-09-24T15:27:52;17.48;;;12.75;;
50225;SDS011;36113;50.742;6.432;2022-09-24T15:30:19;17.03;;;11.93;;
50225;SDS011;36113;50.742;6.432;2022-09-24T15:32:45;16.05;;;12.68;;
50225;SDS011;36113;50.742;6.432;2022-09-24T15:35:14;18.88;;;12.95;;
50225;SDS011;36113;50.742;6.432;2022-09-24T15:37:40;21.63;;;12.65;;
50225;SDS011;36113;50.742;6.432;2022-09-24T15:40:09;17.25;;;12.50;;
50225;SDS011;36113;50.742;6.432;2022-09-24T15:42:49;21.95;;;12.55;;
50225;SDS011;36113;50.742;6.432;2022-09-24T15:45:16;20.23;;;13.40;;
50225;SDS011;36113;50.742;6.432;2022-09-24T15:47:45;20.25;;;12.43;;
50225;SDS011;36113;50.742;6.432;2022-09-24T15:50:10;18.50;;;12.88;;
50225;SDS011;36113;50.742;6.432;2022-09-24T15:52:40;17.33;;;13.70;;
50225;SDS011;36113;50.742;6.432;2022-09-24T15:55:18;18.35;;;13.80;;
50225;SDS011;36113;50.742;6.432;2022-09-24T15:57:45;14.47;;;11.83;;
50225;SDS011;36113;50.742;6.432;2022-09-24T16:00:12;17.93;;;12.73;;
50225;SDS011;36113;50.742;6.432;2022-09-24T16:02:39;19.10;;;13.38;;
50225;SDS011;36113;50.742;6.432;2022-09-24T16:05:10;18.77;;;13.00;;
50225;SDS011;36113;50.742;6.432;2022-09-24T16:07:37;18.75;;;14.23;;
50225;SDS011;36113;50.742;6.432;2022-09-24T16:10:02;19.05;;;13.77;;
50225;SDS011;36113;50.742;6.432;2022-09-24T16:12:28;16.83;;;12.73;;
50225;SDS011;36113;50.742;6.432;2022-09-24T16:14:53;18.73;;;13.00;;
50225;SDS011;36113;50.742;6.432;2022-09-24T16:17:23;20.42;;;14.18;;
50225;SDS011;36113;50.742;6.432;2022-09-24T16:19:49;22.10;;;15.67;;
50225;SDS011;36113;50.742;6.432;2022-09-24T16:22:14;22.33;;;16.73;;
50225;SDS011;36113;50.742;6.432;2022-09-24T16:24:39;23.20;;;16.08;;
50225;SDS011;36113;50.742;6.432;2022-09-24T16:27:04;22.83;;;17.30;;
50225;SDS011;36113;50.742;6.432;2022-09-24T16:29:30;26.80;;;18.20;;
50225;SDS011;36113;50.742;6.432;2022-09-24T16:31:55;24.45;;;17.70;;
50225;SDS011;36113;50.742;6.432;2022-09-24T16:34:20;22.38;;;17.35;;
50225;SDS011;36113;50.742;6.432;2022-09-24T16:36:46;43.17;;;23.73;;
50225;SDS011;36113;50.742;6.432;2022-09-24T16:39:11;27.52;;;18.13;;
50225;SDS011;36113;50.742;6.432;2022-09-24T16:41:39;33.33;;;20.65;;
50225;SDS011;36113;50.742;6.432;2022-09-24T16:44:04;21.45;;;15.52;;